Aérodrome :







RETROUVEZ-NOUS SUR...

 
LOGIN :

S'inscrire | Disclaimer

   EN    FR    IT 

 









Légende :    VFR   VFR Marginal   IFR   IFR Intensif   IFR Très Intensif
Visi : 
Plafond : 
>= 8 km
>= 3000ft
5 à 8 km
1000 à 3000 ft
1500m à 5 km
500 à 1000 ft
800 à 1500m
200 à 500 ft
< 800m
< 200 ft
Symboles :   Orages  Brouillard  Fortes neiges  Fortes précipitations  Vent > 20 kt






- Altitude de l'aérodrome : 1808 ft
- Code IATA : YWK


CYWK - Wabush

DERNIER METAR :
  • 201600Z 09007KT 15SM -SN DRSN OVC008 M07/M10 A3005 RMK ST8 SLP219

METARs EXPIRÉS :
  • 201500Z 08008KT 15SM -SN OVC008 M07/M10 A3005 RMK ST8 SLP220
  • 201400Z 11006KT 070V130 12SM -SN OVC008 M07/M09 A3006 RMK ST8 SLP222

TAF TAF CYWK
Valide du 20 à 14h jusqu'au 21 à 02h UTC


201338Z 2014/2102 08006KT P6SM OVC015
TEMPO 2014/2101 5SM -SN OVC008
BECMG 2014/2016 08012KT
FM210100 13007KT P6SM SCT010 BKN080
TEMPO 2101/2102 P6SM -SN BKN010 OVC080 RMK NXT FCST BY 202000Z



MET'MAP, la Météo Aéronautique d'un coup d'oeil ! - Copyright ORBIFLY Décembre 2007 - Disclaimer

ORBIFLY MET'MAP TEAM :

Programmation & Développement : Alexandra Zaïnal
Conception & Développement : Baudouin d'Aumeries
Co-Programmation & Développement : Marc-Olivier Méhu
Soutien technique & logistique : Manuel Goepfert

Contact : metmap@orbifly.com




SOURCES & CREDITS :

   NOAA